createdAt,value
2018-06-12T00:00:00.208Z,17.40
2018-06-12T00:02:27.821Z,17.40
2018-06-12T00:04:56.351Z,17.40
2018-06-12T00:07:24.517Z,17.40
2018-06-12T00:09:52.094Z,17.40
2018-06-12T00:12:19.685Z,17.40
2018-06-12T00:14:47.241Z,17.30
2018-06-12T00:19:42.909Z,17.30
2018-06-12T00:22:10.496Z,17.40
2018-06-12T00:24:38.076Z,17.50
2018-06-12T00:27:05.648Z,17.50
2018-06-12T00:29:33.240Z,17.50
2018-06-12T00:32:00.817Z,17.50
2018-06-12T00:34:28.456Z,17.50
2018-06-12T00:36:56.034Z,17.40
2018-06-12T00:39:23.645Z,17.30
2018-06-12T00:41:51.252Z,17.40
2018-06-12T00:44:18.836Z,17.40
2018-06-12T00:46:46.429Z,17.30
2018-06-12T00:49:13.985Z,17.30
2018-06-12T00:51:41.569Z,17.30
2018-06-12T00:56:48.211Z,17.10
2018-06-12T00:59:15.812Z,16.90
2018-06-12T01:01:43.472Z,16.80
2018-06-12T01:04:11.071Z,16.80
2018-06-12T01:06:38.660Z,16.80
2018-06-12T01:09:06.273Z,16.90
2018-06-12T01:11:33.864Z,16.90
2018-06-12T01:14:02.416Z,16.90
2018-06-12T01:16:30.024Z,16.80
2018-06-12T01:18:57.588Z,16.70
2018-06-12T01:21:25.298Z,16.60
2018-06-12T01:23:52.852Z,16.60
2018-06-12T01:26:21.477Z,16.60
2018-06-12T01:28:49.036Z,16.60
2018-06-12T01:31:16.628Z,16.50
2018-06-12T01:33:44.226Z,16.50
2018-06-12T01:36:11.877Z,16.40
2018-06-12T01:38:39.484Z,16.30
2018-06-12T01:41:08.373Z,16.30
2018-06-12T01:43:37.561Z,16.30
2018-06-12T01:46:05.624Z,16.30
2018-06-12T01:48:33.221Z,16.20
2018-06-12T01:51:00.772Z,16.30
2018-06-12T01:53:28.347Z,16.30
2018-06-12T01:55:55.945Z,16.10
2018-06-12T01:58:23.500Z,16.10
2018-06-12T02:00:51.096Z,16.00
2018-06-12T02:03:18.685Z,15.90
2018-06-12T02:05:46.977Z,15.80
2018-06-12T02:08:14.553Z,15.80
2018-06-12T02:13:09.604Z,16.00
2018-06-12T02:15:38.240Z,16.10
2018-06-12T02:18:05.797Z,16.10
2018-06-12T02:20:33.385Z,16.10
2018-06-12T02:23:00.949Z,16.10
2018-06-12T02:25:28.517Z,16.20
2018-06-12T02:27:56.102Z,16.10
2018-06-12T02:30:23.699Z,16.20
2018-06-12T02:35:18.775Z,16.40
2018-06-12T02:37:46.352Z,16.50
2018-06-12T02:40:13.964Z,16.60
2018-06-12T02:42:41.529Z,16.60
2018-06-12T02:45:09.130Z,16.60
2018-06-12T02:47:37.747Z,16.70
2018-06-12T02:50:05.364Z,16.80
2018-06-12T02:52:32.941Z,16.80
2018-06-12T02:55:00.525Z,16.90
2018-06-12T02:57:28.097Z,17.00
2018-06-12T03:02:23.196Z,16.90
2018-06-12T03:04:51.320Z,16.90
2018-06-12T03:07:19.461Z,17.00
2018-06-12T03:09:47.060Z,17.10
2018-06-12T03:12:15.631Z,17.00
2018-06-12T03:14:43.244Z,17.00
2018-06-12T03:17:10.889Z,17.10
2018-06-12T03:19:38.462Z,16.90
2018-06-12T03:22:06.037Z,16.80
2018-06-12T03:24:33.620Z,16.80
2018-06-12T03:27:01.201Z,16.80
2018-06-12T03:29:29.677Z,16.70
2018-06-12T03:31:57.253Z,16.70
2018-06-12T03:34:24.845Z,16.70
2018-06-12T03:36:52.429Z,16.70
2018-06-12T03:39:20.017Z,16.70
2018-06-12T03:41:47.598Z,16.90
2018-06-12T03:44:15.199Z,16.70
2018-06-12T03:46:42.768Z,16.90
2018-06-12T03:49:10.348Z,16.90
2018-06-12T03:56:32.961Z,17.10
2018-06-12T03:59:00.544Z,17.20
2018-06-12T04:01:28.148Z,17.20
2018-06-12T04:03:55.711Z,17.30
2018-06-12T04:06:23.272Z,17.40
2018-06-12T04:08:50.867Z,17.50
2018-06-12T04:11:18.425Z,17.70
2018-06-12T04:13:47.055Z,17.80
2018-06-12T04:16:15.657Z,17.90
2018-06-12T04:18:43.237Z,17.70
2018-06-12T04:21:10.827Z,17.80
2018-06-12T04:23:38.380Z,17.80
2018-06-12T04:26:05.992Z,18.00
2018-06-12T04:28:34.148Z,17.90
2018-06-12T04:31:01.733Z,17.90
2018-06-12T04:35:56.788Z,17.90
2018-06-12T04:38:24.356Z,17.90
2018-06-12T04:40:51.952Z,17.90
2018-06-12T04:43:19.535Z,17.90
2018-06-12T04:45:47.136Z,18.00
2018-06-12T04:48:14.689Z,18.10
2018-06-12T04:50:42.900Z,18.20
2018-06-12T04:53:10.469Z,18.40
2018-06-12T04:55:38.469Z,18.30
2018-06-12T04:58:06.048Z,18.50
2018-06-12T05:00:33.648Z,18.60
2018-06-12T05:03:01.224Z,18.60
2018-06-12T05:05:28.836Z,18.70
2018-06-12T05:07:56.408Z,18.70
2018-06-12T05:10:24.525Z,18.50
2018-06-12T05:12:52.134Z,18.30
2018-06-12T05:15:19.701Z,18.40
2018-06-12T05:17:47.737Z,18.50
2018-06-12T05:20:15.300Z,18.60
2018-06-12T05:22:42.880Z,18.50
2018-06-12T05:25:10.436Z,18.30
2018-06-12T05:27:38.018Z,18.10
2018-06-12T05:30:05.673Z,18.00
2018-06-12T05:32:33.945Z,17.90
2018-06-12T05:35:01.492Z,17.70
2018-06-12T05:37:29.072Z,17.70
2018-06-12T05:39:56.658Z,18.00
2018-06-12T05:42:24.224Z,18.10
2018-06-12T05:44:51.806Z,18.20
2018-06-12T05:47:20.206Z,18.60
2018-06-12T05:49:47.765Z,19.00
2018-06-12T05:52:15.341Z,19.10
2018-06-12T05:54:42.895Z,19.10
2018-06-12T05:57:10.468Z,19.00
2018-06-12T05:59:38.025Z,19.10
2018-06-12T06:02:06.129Z,19.30
2018-06-12T06:04:33.689Z,19.10
2018-06-12T06:07:01.269Z,19.10
2018-06-12T06:09:28.815Z,19.00
2018-06-12T06:11:56.425Z,19.10
2018-06-12T06:14:24.005Z,19.20
2018-06-12T06:16:51.584Z,19.40
2018-06-12T06:19:19.172Z,19.40
2018-06-12T06:21:46.840Z,19.30
2018-06-12T06:24:14.411Z,19.20
2018-06-12T06:26:42.003Z,19.40
2018-06-12T06:29:09.565Z,19.40
2018-06-12T06:31:37.132Z,19.40
2018-06-12T06:34:04.760Z,19.50
2018-06-12T06:36:32.341Z,19.70
2018-06-12T06:38:59.917Z,19.90
2018-06-12T06:41:27.533Z,19.80
2018-06-12T06:43:55.100Z,19.70
2018-06-12T06:46:22.662Z,19.50
2018-06-12T06:48:50.248Z,19.40
2018-06-12T06:51:19.137Z,19.40
2018-06-12T06:53:46.707Z,19.40
2018-06-12T06:56:15.272Z,19.60
2018-06-12T06:58:43.903Z,19.70
2018-06-12T07:01:11.469Z,20.00
2018-06-12T07:03:39.035Z,20.30
2018-06-12T07:06:06.636Z,20.40
2018-06-12T07:08:34.180Z,20.50
2018-06-12T07:11:01.748Z,20.80
2018-06-12T07:13:29.288Z,20.90
2018-06-12T07:15:57.380Z,21.10
2018-06-12T07:18:24.923Z,21.40
2018-06-12T07:21:07.476Z,21.30
2018-06-12T07:23:35.033Z,21.20
2018-06-12T07:26:04.789Z,21.00
2018-06-12T07:28:32.350Z,21.00
2018-06-12T07:30:59.945Z,21.00
2018-06-12T07:33:27.524Z,21.10
2018-06-12T07:35:55.120Z,21.20
2018-06-12T07:38:22.688Z,21.20
2018-06-12T07:40:50.908Z,21.50
2018-06-12T07:43:18.464Z,21.40
2018-06-12T07:45:46.045Z,21.10
2018-06-12T07:48:13.597Z,21.20
2018-06-12T07:50:41.181Z,21.30
2018-06-12T07:53:08.728Z,21.30
2018-06-12T07:55:36.312Z,21.30
2018-06-12T07:58:04.500Z,21.60
2018-06-12T08:00:32.073Z,22.00
2018-06-12T08:02:59.648Z,22.20
2018-06-12T08:05:27.265Z,22.40
2018-06-12T08:07:54.854Z,22.40
2018-06-12T08:10:22.439Z,22.20
2018-06-12T08:12:50.018Z,22.40
2018-06-12T08:15:17.604Z,22.30
2018-06-12T08:17:45.240Z,22.40
2018-06-12T08:20:12.801Z,22.30
2018-06-12T08:22:40.376Z,22.20
2018-06-12T08:25:07.954Z,22.30
2018-06-12T08:27:35.573Z,22.30
2018-06-12T08:30:03.952Z,22.50
2018-06-12T08:32:31.436Z,22.90
2018-06-12T08:37:26.528Z,23.60
2018-06-12T08:39:54.107Z,23.80
2018-06-12T08:42:21.693Z,23.80
2018-06-12T08:44:49.322Z,24.10
2018-06-12T08:47:16.882Z,24.00
2018-06-12T08:49:45.009Z,23.80
2018-06-12T08:52:12.565Z,23.50
2018-06-12T08:54:40.192Z,23.40
2018-06-12T08:57:07.763Z,23.40
2018-06-12T09:02:02.825Z,23.70
2018-06-12T09:04:30.416Z,24.00
2018-06-12T09:06:57.952Z,24.10
2018-06-12T09:09:26.047Z,23.60
2018-06-12T09:11:54.256Z,23.90
2018-06-12T09:14:21.847Z,23.70
2018-06-12T09:16:49.828Z,23.70
2018-06-12T09:19:17.428Z,23.70
2018-06-12T09:21:44.996Z,24.00
2018-06-12T09:24:12.564Z,24.10
2018-06-12T09:26:40.161Z,24.50
2018-06-12T09:29:08.227Z,25.00
2018-06-12T09:31:35.801Z,25.40
2018-06-12T09:34:03.446Z,25.90
2018-06-12T09:36:34.788Z,25.80
2018-06-12T09:39:05.769Z,25.90
2018-06-12T09:41:33.360Z,25.70
2018-06-12T09:44:00.932Z,25.40
2018-06-12T09:46:28.481Z,25.50
2018-06-12T09:48:56.063Z,25.20
2018-06-12T09:51:23.754Z,25.10
2018-06-12T09:53:51.348Z,24.90
2018-06-12T09:56:19.608Z,24.60
2018-06-12T09:58:47.165Z,24.70
2018-06-12T10:01:17.960Z,24.50
2018-06-12T10:03:46.408Z,24.30
2018-06-12T10:06:14.007Z,24.30
2018-06-12T10:08:41.587Z,24.40
2018-06-12T10:11:09.188Z,24.50
2018-06-12T10:13:36.800Z,24.30
2018-06-12T10:16:04.620Z,24.30
2018-06-12T10:18:32.217Z,24.30
2018-06-12T10:21:00.824Z,24.50
2018-06-12T10:23:28.424Z,24.80
2018-06-12T10:25:56.992Z,24.80
2018-06-12T10:28:24.624Z,24.90
2018-06-12T10:30:52.180Z,24.90
2018-06-12T10:33:19.792Z,25.10
2018-06-12T10:35:47.352Z,24.90
2018-06-12T10:40:43.000Z,24.90
2018-06-12T10:43:10.601Z,24.90
2018-06-12T10:45:38.176Z,24.90
2018-06-12T10:48:05.805Z,24.90
2018-06-12T10:50:33.362Z,25.00
2018-06-12T10:53:00.941Z,25.10
2018-06-12T10:55:28.522Z,24.90
2018-06-12T10:57:56.129Z,24.80
2018-06-12T11:00:23.692Z,24.70
2018-06-12T11:02:51.272Z,24.90
2018-06-12T11:05:19.836Z,24.90
2018-06-12T11:07:48.182Z,24.80
2018-06-12T11:10:16.812Z,25.30
2018-06-12T11:12:44.440Z,25.50
2018-06-12T11:15:12.009Z,26.00
2018-06-12T11:17:39.795Z,26.30
2018-06-12T11:20:07.381Z,26.30
2018-06-12T11:22:34.973Z,26.50
2018-06-12T11:25:02.628Z,27.00
2018-06-12T11:27:30.202Z,26.90
2018-06-12T11:29:57.844Z,27.10
2018-06-12T11:32:25.409Z,27.90
2018-06-12T11:34:52.961Z,28.30
2018-06-12T11:37:20.553Z,28.40
2018-06-12T11:39:48.111Z,28.30
2018-06-12T11:42:15.693Z,27.70
2018-06-12T11:44:43.269Z,27.30
2018-06-12T11:47:10.852Z,27.40
2018-06-12T11:49:39.144Z,27.90
2018-06-12T11:52:06.740Z,28.00
2018-06-12T11:54:34.294Z,28.20
2018-06-12T11:57:01.865Z,28.40
2018-06-12T11:59:29.472Z,28.30
2018-06-12T12:01:57.054Z,27.90
2018-06-12T12:04:24.593Z,27.60
2018-06-12T12:06:52.171Z,27.30
2018-06-12T12:09:19.778Z,27.10
2018-06-12T12:11:47.437Z,27.00
2018-06-12T12:14:14.988Z,27.20
2018-06-12T12:16:42.574Z,27.10
2018-06-12T12:19:10.176Z,27.10
2018-06-12T12:21:37.720Z,27.10
2018-06-12T12:24:05.301Z,26.90
2018-06-12T12:26:32.874Z,27.10
2018-06-12T12:29:00.509Z,27.60
2018-06-12T12:31:28.065Z,27.70
2018-06-12T12:33:55.653Z,28.00
2018-06-12T12:36:23.193Z,28.30
2018-06-12T12:38:50.788Z,28.40
2018-06-12T12:41:18.349Z,28.60
2018-06-12T12:43:45.929Z,28.90
2018-06-12T12:46:13.486Z,29.00
2018-06-12T12:48:41.035Z,29.10
2018-06-12T12:51:08.640Z,29.60
2018-06-12T12:53:36.192Z,30.00
2018-06-12T12:56:03.827Z,30.40
2018-06-12T12:58:31.417Z,30.50
2018-06-12T13:00:58.985Z,31.10
2018-06-12T13:03:26.558Z,31.10
2018-06-12T13:05:55.169Z,31.60
2018-06-12T13:08:22.724Z,32.00
2018-06-12T13:10:50.298Z,32.20
2018-06-12T13:13:17.866Z,32.70
2018-06-12T13:15:45.432Z,33.00
2018-06-12T13:18:13.009Z,33.40
2018-06-12T13:20:40.600Z,33.40
2018-06-12T13:23:08.172Z,32.80
2018-06-12T13:25:35.762Z,31.70
2018-06-12T13:28:03.383Z,30.70
2018-06-12T13:30:30.961Z,29.80
2018-06-12T13:32:59.533Z,29.30
2018-06-12T13:35:27.101Z,28.60
2018-06-12T13:37:55.764Z,27.90
2018-06-12T13:42:50.988Z,27.30
2018-06-12T13:45:18.559Z,27.00
2018-06-12T13:47:46.153Z,26.80
2018-06-12T13:50:13.840Z,26.70
2018-06-12T13:52:41.411Z,26.60
2018-06-12T13:55:08.954Z,26.70
2018-06-12T13:57:36.529Z,26.50
2018-06-12T14:00:04.582Z,26.40
2018-06-12T14:02:32.176Z,26.30
2018-06-12T14:04:59.729Z,26.20
2018-06-12T14:07:27.440Z,26.00
2018-06-12T14:09:55.021Z,26.00
2018-06-12T14:12:22.604Z,25.90
2018-06-12T14:14:50.772Z,25.80
2018-06-12T14:17:18.344Z,25.70
2018-06-12T14:19:45.913Z,25.80
2018-06-12T14:22:13.493Z,25.50
2018-06-12T14:24:41.072Z,25.40
2018-06-12T14:27:08.628Z,25.00
2018-06-12T14:29:36.272Z,24.90
2018-06-12T14:32:03.845Z,24.80
2018-06-12T14:34:32.432Z,24.70
2018-06-12T14:37:01.001Z,24.60
2018-06-12T14:39:28.599Z,24.30
2018-06-12T14:41:56.160Z,24.20
2018-06-12T14:44:24.319Z,24.00
2018-06-12T14:46:51.993Z,23.70
2018-06-12T14:49:19.590Z,23.30
2018-06-12T14:51:47.200Z,22.80
2018-06-12T14:54:14.781Z,22.40
2018-06-12T14:56:42.388Z,22.10
2018-06-12T14:59:10.007Z,21.80
2018-06-12T15:01:37.559Z,21.40
2018-06-12T15:04:05.153Z,21.10
2018-06-12T15:06:32.740Z,20.60
2018-06-12T15:09:00.317Z,20.30
2018-06-12T15:11:27.928Z,20.00
2018-06-12T15:13:55.495Z,19.80
2018-06-12T15:16:23.088Z,19.40
2018-06-12T15:18:50.704Z,19.10
2018-06-12T15:21:18.311Z,19.00
2018-06-12T15:23:45.924Z,18.80
2018-06-12T15:26:13.550Z,18.50
2018-06-12T15:28:41.169Z,17.40
2018-06-12T15:31:08.773Z,16.60
2018-06-12T15:33:36.342Z,16.00
2018-06-12T15:36:04.093Z,15.60
2018-06-12T15:38:31.676Z,15.40
2018-06-12T15:40:59.260Z,15.20
2018-06-12T15:43:26.943Z,15.10
2018-06-12T15:45:54.552Z,15.00
2018-06-12T15:48:22.188Z,14.80
2018-06-12T15:50:49.809Z,14.90
2018-06-12T15:53:17.406Z,15.00
2018-06-12T15:55:45.042Z,15.10
2018-06-12T15:58:12.676Z,15.10
2018-06-12T16:00:40.923Z,15.20
2018-06-12T16:03:08.517Z,15.20
2018-06-12T16:05:36.108Z,14.90
2018-06-12T16:08:03.784Z,14.80
2018-06-12T16:10:31.357Z,14.90
2018-06-12T16:12:58.981Z,14.90
2018-06-12T16:15:26.560Z,15.00
2018-06-12T16:17:54.136Z,15.00
2018-06-12T16:20:21.744Z,15.20
2018-06-12T16:22:49.312Z,15.20
2018-06-12T16:25:16.956Z,15.30
2018-06-12T16:27:44.537Z,15.50
2018-06-12T16:30:12.856Z,15.70
2018-06-12T16:32:40.444Z,15.70
2018-06-12T16:35:08.061Z,15.80
2018-06-12T16:37:35.648Z,15.60
2018-06-12T16:40:03.308Z,15.60
2018-06-12T16:42:30.895Z,15.60
2018-06-12T16:44:58.496Z,15.60
2018-06-12T16:47:26.729Z,15.60
2018-06-12T16:49:55.304Z,15.60
2018-06-12T16:52:22.888Z,15.60
2018-06-12T16:54:50.488Z,15.70
2018-06-12T16:57:18.077Z,15.70
2018-06-12T16:59:45.660Z,15.80
2018-06-12T17:02:13.272Z,15.70
2018-06-12T17:04:40.874Z,15.80
2018-06-12T17:07:08.444Z,15.70
2018-06-12T17:09:36.025Z,15.80
2018-06-12T17:12:03.641Z,15.70
2018-06-12T17:14:31.281Z,15.70
2018-06-12T17:16:58.863Z,15.60
2018-06-12T17:19:26.479Z,15.50
2018-06-12T17:21:54.060Z,15.40
2018-06-12T17:24:21.663Z,15.40
2018-06-12T17:26:49.909Z,15.30
2018-06-12T17:29:17.492Z,15.40
2018-06-12T17:31:45.096Z,15.50
2018-06-12T17:34:12.709Z,15.50
2018-06-12T17:36:40.380Z,15.50
2018-06-12T17:39:07.952Z,15.40
2018-06-12T17:41:35.564Z,15.30
2018-06-12T17:44:03.215Z,15.30
2018-06-12T17:46:30.889Z,15.20
2018-06-12T17:48:58.494Z,15.10
2018-06-12T17:51:26.078Z,15.20
2018-06-12T17:53:53.644Z,15.30
2018-06-12T17:56:21.228Z,15.20
2018-06-12T17:58:48.837Z,15.30
2018-06-12T18:01:16.449Z,15.40
2018-06-12T18:03:44.049Z,15.50
2018-06-12T18:06:11.628Z,15.40
2018-06-12T18:08:39.217Z,15.50
2018-06-12T18:11:06.798Z,15.50
2018-06-12T18:13:39.746Z,15.60
2018-06-12T18:16:07.384Z,15.60
2018-06-12T18:18:34.972Z,15.70
2018-06-12T18:21:02.640Z,15.70
2018-06-12T18:23:30.256Z,15.90
2018-06-12T18:25:57.844Z,16.00
2018-06-12T18:28:25.466Z,16.10
2018-06-12T18:30:53.065Z,16.10
2018-06-12T18:33:20.657Z,16.30
2018-06-12T18:35:48.217Z,16.20
2018-06-12T18:38:15.840Z,16.10
2018-06-12T18:40:43.420Z,16.00
2018-06-12T18:43:11.048Z,15.90
2018-06-12T18:45:38.639Z,15.90
2018-06-12T18:48:06.221Z,15.70
2018-06-12T18:50:34.333Z,15.80
2018-06-12T18:53:01.908Z,15.80
2018-06-12T18:55:29.526Z,15.70
2018-06-12T18:57:57.110Z,15.70
2018-06-12T19:00:24.756Z,15.70
2018-06-12T19:02:52.337Z,15.80
2018-06-12T19:05:19.986Z,15.70
2018-06-12T19:07:47.561Z,15.70
2018-06-12T19:10:15.132Z,15.70
2018-06-12T19:12:42.767Z,15.80
2018-06-12T19:15:10.365Z,15.80
2018-06-12T19:17:37.987Z,15.90
2018-06-12T19:20:05.840Z,15.90
2018-06-12T19:22:33.417Z,15.90
2018-06-12T19:25:01.019Z,16.00
2018-06-12T19:27:28.634Z,15.90
2018-06-12T19:29:56.257Z,16.00
2018-06-12T19:32:23.879Z,16.00
2018-06-12T19:34:51.460Z,16.00
2018-06-12T19:37:19.121Z,16.10
2018-06-12T19:39:46.721Z,16.10
2018-06-12T19:42:14.301Z,16.00
2018-06-12T19:44:41.876Z,16.50
2018-06-12T19:47:09.492Z,16.10
2018-06-12T19:49:37.120Z,15.90
2018-06-12T19:52:04.737Z,16.00
2018-06-12T19:54:32.396Z,15.80
2018-06-12T19:56:59.957Z,15.90
2018-06-12T19:59:27.859Z,15.80
2018-06-12T20:01:55.464Z,15.80
2018-06-12T20:04:23.111Z,15.80
2018-06-12T20:06:50.804Z,15.80
2018-06-12T20:09:18.453Z,15.90
2018-06-12T20:11:46.166Z,15.70
2018-06-12T20:14:13.854Z,15.60
2018-06-12T20:16:41.457Z,15.70
2018-06-12T20:19:09.055Z,15.60
2018-06-12T20:21:36.695Z,15.80
2018-06-12T20:24:04.469Z,15.70
2018-06-12T20:26:32.079Z,15.60
2018-06-12T20:28:59.811Z,15.60
2018-06-12T20:31:27.584Z,15.70
2018-06-12T20:33:55.185Z,15.80
2018-06-12T20:36:22.792Z,15.80
2018-06-12T20:38:50.422Z,15.90
2018-06-12T20:41:18.076Z,15.90
2018-06-12T20:43:45.752Z,15.80
2018-06-12T20:46:13.344Z,15.90
2018-06-12T20:48:40.969Z,16.20
2018-06-12T20:51:08.571Z,16.10
2018-06-12T20:53:36.157Z,15.90
2018-06-12T20:56:03.784Z,16.00
2018-06-12T20:58:31.377Z,16.00
2018-06-12T21:01:05.135Z,16.10
2018-06-12T21:03:32.768Z,16.10
2018-06-12T21:06:00.360Z,16.00
2018-06-12T21:08:28.116Z,15.80
2018-06-12T21:10:55.692Z,15.70
2018-06-12T21:13:23.283Z,15.80
2018-06-12T21:15:50.876Z,15.90
2018-06-12T21:18:18.488Z,15.90
2018-06-12T21:20:46.088Z,15.90
2018-06-12T21:23:13.688Z,15.70
2018-06-12T21:25:41.276Z,15.70
2018-06-12T21:28:08.892Z,15.60
2018-06-12T21:30:36.472Z,15.60
2018-06-12T21:33:04.070Z,15.70
2018-06-12T21:35:31.649Z,15.70
2018-06-12T21:37:59.886Z,15.80
2018-06-12T21:40:27.509Z,15.90
2018-06-12T21:42:55.080Z,15.90
2018-06-12T21:45:22.711Z,16.00
2018-06-12T21:47:50.288Z,16.10
2018-06-12T21:50:17.901Z,16.00
2018-06-12T21:52:45.557Z,15.90
2018-06-12T21:55:13.167Z,15.90
2018-06-12T21:57:40.728Z,15.90
2018-06-12T22:00:08.785Z,16.20
2018-06-12T22:02:36.365Z,16.10
2018-06-12T22:05:04.010Z,16.10
2018-06-12T22:07:31.584Z,16.20
2018-06-12T22:09:59.221Z,16.30
2018-06-12T22:12:26.852Z,16.20
2018-06-12T22:14:54.438Z,16.30
2018-06-12T22:17:22.021Z,16.20
2018-06-12T22:19:49.611Z,16.30
2018-06-12T22:22:17.166Z,16.20
2018-06-12T22:24:44.772Z,16.10
2018-06-12T22:27:12.368Z,16.10
2018-06-12T22:29:39.945Z,16.00
2018-06-12T22:32:07.631Z,16.00
2018-06-12T22:34:35.169Z,16.00
2018-06-12T22:37:04.102Z,16.10
2018-06-12T22:39:31.689Z,16.10
2018-06-12T22:41:59.255Z,16.20
2018-06-12T22:44:26.820Z,16.30
2018-06-12T22:46:54.420Z,16.30
2018-06-12T22:49:22.045Z,16.30
2018-06-12T22:51:49.639Z,16.40
2018-06-12T22:54:17.287Z,16.40
2018-06-12T22:56:44.940Z,16.40
2018-06-12T22:59:12.575Z,16.40
2018-06-12T23:01:40.181Z,16.40
2018-06-12T23:04:07.764Z,16.50
2018-06-12T23:06:35.342Z,16.40
2018-06-12T23:09:03.768Z,16.40
2018-06-12T23:11:31.388Z,16.40
2018-06-12T23:13:58.985Z,16.40
2018-06-12T23:16:26.597Z,16.20
2018-06-12T23:18:54.269Z,16.10
2018-06-12T23:22:30.216Z,16.10
2018-06-12T23:24:57.816Z,16.00
2018-06-12T23:27:25.407Z,15.90
2018-06-12T23:29:52.982Z,15.90
2018-06-12T23:32:20.608Z,16.00
2018-06-12T23:34:48.210Z,16.10
2018-06-12T23:37:15.773Z,16.20
2018-06-12T23:39:43.368Z,16.20
2018-06-12T23:42:10.974Z,16.20
2018-06-12T23:44:38.592Z,16.10
2018-06-12T23:47:06.196Z,16.20
2018-06-12T23:49:33.884Z,16.10
2018-06-12T23:52:01.456Z,16.10
2018-06-12T23:54:29.044Z,15.90
2018-06-12T23:56:56.636Z,15.80
2018-06-12T23:59:24.260Z,15.80
